This is the latest recevied weather packets stored in our database for station/object N2KI-13. If no packets are shown the sender has not sent any weather packets the latest 10 day(s).
| Time | Temp. | Humidity | Pressure | Rain* | Wind** | Luminosity | Snow |
|---|---|---|---|---|---|---|---|
| 1777370403 | 3.33° C | 87% | 1021.7 hPa | 0 mm | - | - | - |
| 1777370104 | 3.33° C | 86% | 1021.7 hPa | 0 mm | - | - | - |
| 1777366804 | 4.44° C | 86% | 1021.7 hPa | 0 mm | - | - | - |
| 1777366204 | 4.44° C | 85% | 1021.8 hPa | 0 mm | - | - | - |
| 1777361404 | 5.56° C | 83% | 1022.1 hPa | 0 mm | - | - | - |
| 1777354804 | 8.33° C | 75% | 1022.9 hPa | 0 mm | - | - | - |
| 1777353305 | 8.89° C | 75% | 1022.8 hPa | 0 mm | - | - | - |
| 1777352704 | 9.44° C | 72% | 1022.6 hPa | 0 mm | - | - | - |
| 1777350605 | 10° C | 67% | 1023.3 hPa | 0 mm | - | - | - |
| 1777349704 | 10.56° C | 65% | 1023.5 hPa | 0 mm | - | - | - |
| 1777349405 | 11.11° C | 65% | 1023.5 hPa | 0 mm | - | - | - |
| 1777348804 | 11.11° C | 66% | 1023.6 hPa | 0 mm | - | - | - |
| 1777347904 | 11.67° C | 62% | 1023.7 hPa | 0 mm | - | - | - |
| 1777347304 | 12.22° C | 62% | 1023.8 hPa | 0 mm | - | - | - |
| 1777346704 | 12.78° C | 60% | 1023.8 hPa | 0 mm | - | - | - |
| 1777344305 | 13.89° C | 57% | 1023.9 hPa | 0 mm | - | - | - |
| 1777340704 | 15.56° C | 50% | 1023.1 hPa | 0 mm | - | - | - |
| 1777340104 | 16.11° C | 49% | 1023 hPa | 0 mm | - | - | - |
| 1777339204 | 16.11° C | 48% | 1022.8 hPa | 0 mm | - | - | - |
| 1777338004 | 16.67° C | 47% | 1022.7 hPa | 0 mm | - | - | - |
| 1777336804 | 17.22° C | 45% | 1022.6 hPa | 0 mm | - | - | - |
| 1777335304 | 18.33° C | 42% | 1022.2 hPa | 0 mm | - | - | - |
| 1777332604 | 20° C | 40% | 1021.8 hPa | 0 mm | - | - | - |
| 1777332004 | 20.56° C | 40% | 1021.6 hPa | 0 mm | - | - | - |
| 1777330804 | 21.67° C | 35% | 1021.3 hPa | 0 mm | - | - | - |
* Rain latest hour (hover to see other rain measurements)
** Current wind speed in m/s (hover to see current wind gust speed)